createdAt,value
2023-04-11T00:01:56.149Z,31.20
2023-04-11T00:04:29.305Z,32.50
2023-04-11T00:07:01.635Z,32.40
2023-04-11T00:09:34.080Z,33.90
2023-04-11T00:12:06.767Z,26.80
2023-04-11T00:14:45.972Z,29.10
2023-04-11T00:17:18.932Z,33.90
2023-04-11T00:19:53.793Z,31.30
2023-04-11T00:22:27.858Z,33.70
2023-04-11T00:24:59.996Z,32.20
2023-04-11T00:27:32.886Z,37.60
2023-04-11T00:30:07.220Z,36.50
2023-04-11T00:32:41.287Z,33.40
2023-04-11T00:35:15.952Z,32.10
2023-04-11T00:37:49.576Z,33.50
2023-04-11T00:40:22.291Z,32.20
2023-04-11T00:42:56.268Z,36.00
2023-04-11T00:45:28.888Z,36.80
2023-04-11T00:48:01.643Z,34.20
2023-04-11T00:50:33.993Z,31.10
2023-04-11T00:53:05.964Z,32.20
2023-04-11T00:55:41.549Z,31.60
2023-04-11T00:58:13.752Z,30.80
2023-04-11T01:00:50.151Z,34.50
2023-04-11T01:03:23.124Z,31.60
2023-04-11T01:05:56.884Z,37.50
2023-04-11T01:08:29.471Z,29.30
2023-04-11T01:11:02.876Z,33.70
2023-04-11T01:13:37.131Z,34.30
2023-04-11T01:16:11.433Z,32.70
2023-04-11T01:18:56.995Z,31.20
2023-04-11T01:21:30.074Z,37.30
2023-04-11T01:24:04.914Z,37.90
2023-04-11T01:26:38.563Z,34.30
2023-04-11T01:29:11.806Z,34.60
2023-04-11T01:31:44.294Z,36.40
2023-04-11T01:34:20.260Z,33.70
2023-04-11T01:36:52.512Z,34.60
2023-04-11T01:39:27.450Z,31.50
2023-04-11T01:42:01.729Z,33.80
2023-04-11T01:44:36.119Z,30.40
2023-04-11T01:47:11.213Z,35.60
2023-04-11T01:49:46.359Z,34.00
2023-04-11T01:52:20.256Z,29.50
2023-04-11T01:54:53.717Z,32.60
2023-04-11T01:57:26.059Z,32.90
2023-04-11T01:59:59.029Z,31.60
2023-04-11T02:02:33.964Z,29.80
2023-04-11T02:07:43.627Z,30.60
2023-04-11T02:10:15.835Z,30.50
2023-04-11T02:12:48.359Z,29.40
2023-04-11T02:15:20.762Z,27.00
2023-04-11T02:17:54.463Z,29.90
2023-04-11T02:20:30.702Z,31.40
2023-04-11T02:23:04.798Z,35.80
2023-04-11T02:25:37.855Z,28.60
2023-04-11T02:28:12.968Z,28.10
2023-04-11T02:30:45.510Z,23.70
2023-04-11T02:33:17.727Z,27.70
2023-04-11T02:35:57.921Z,30.60
2023-04-11T02:38:30.466Z,24.30
2023-04-11T02:41:05.018Z,27.50
2023-04-11T02:43:39.458Z,28.70
2023-04-11T02:46:13.122Z,28.60
2023-04-11T02:48:52.447Z,27.10
2023-04-11T02:51:25.115Z,27.70
2023-04-11T02:53:57.334Z,29.00
2023-04-11T02:56:34.348Z,27.80
2023-04-11T02:59:07.227Z,30.60
2023-04-11T03:01:41.621Z,32.80
2023-04-11T03:04:14.221Z,27.80
2023-04-11T03:06:58.540Z,28.70
2023-04-11T03:09:30.854Z,32.00
2023-04-11T03:12:02.928Z,30.40
2023-04-11T03:14:35.373Z,30.10
2023-04-11T03:17:07.536Z,33.00
2023-04-11T03:19:43.508Z,31.80
2023-04-11T03:22:15.764Z,33.20
2023-04-11T03:24:50.016Z,31.10
2023-04-11T03:27:24.083Z,27.00
2023-04-11T03:29:59.829Z,32.90
2023-04-11T03:32:40.116Z,30.80
2023-04-11T03:35:14.905Z,33.50
2023-04-11T03:37:50.785Z,30.60
2023-04-11T03:40:22.981Z,29.50
2023-04-11T03:43:04.329Z,26.90
2023-04-11T03:45:38.297Z,30.20
2023-04-11T03:48:14.429Z,29.80
2023-04-11T03:51:07.778Z,26.60
2023-04-11T03:53:46.030Z,27.90
2023-04-11T03:56:41.612Z,31.10
2023-04-11T03:59:20.935Z,32.30
2023-04-11T04:02:10.801Z,30.50
2023-04-11T04:04:55.111Z,26.10
2023-04-11T04:07:32.039Z,24.80
2023-04-11T04:10:15.419Z,29.50
2023-04-11T04:12:48.161Z,30.70
2023-04-11T04:15:23.663Z,30.60
2023-04-11T04:17:55.979Z,26.90
2023-04-11T04:20:42.595Z,31.90
2023-04-11T04:23:20.139Z,31.00
2023-04-11T04:26:02.409Z,30.90
2023-04-11T04:28:36.697Z,33.00
2023-04-11T04:31:09.689Z,31.70
2023-04-11T04:33:49.666Z,33.30
2023-04-11T04:36:28.707Z,32.60
2023-04-11T04:39:02.350Z,32.40
2023-04-11T04:41:37.745Z,30.30
2023-04-11T04:44:12.613Z,32.30
2023-04-11T04:46:53.969Z,28.40
2023-04-11T04:49:27.533Z,28.50
2023-04-11T04:52:00.110Z,31.20
2023-04-11T04:54:35.087Z,39.10
2023-04-11T04:57:07.821Z,39.90
2023-04-11T04:59:42.352Z,39.00
2023-04-11T05:02:17.935Z,35.60
2023-04-11T05:04:54.290Z,30.50
2023-04-11T05:07:26.800Z,38.70
2023-04-11T05:09:59.643Z,73.50
2023-04-11T05:12:33.052Z,109.40
2023-04-11T05:15:12.999Z,63.90
2023-04-11T05:17:46.210Z,53.60
2023-04-11T05:20:20.328Z,49.50
2023-04-11T05:22:53.753Z,45.40
2023-04-11T05:25:27.486Z,46.40
2023-04-11T05:28:02.871Z,37.00
2023-04-11T05:30:35.522Z,29.20
2023-04-11T05:33:09.984Z,24.60
2023-04-11T05:35:42.664Z,28.60
2023-04-11T05:38:15.663Z,22.30
2023-04-11T05:40:48.174Z,23.70
2023-04-11T05:43:20.360Z,26.60
2023-04-11T05:45:53.874Z,24.60
2023-04-11T05:48:26.830Z,22.20
2023-04-11T05:50:59.545Z,27.10
2023-04-11T05:53:32.218Z,27.20
2023-04-11T05:56:04.828Z,30.00
2023-04-11T05:58:37.869Z,25.70
2023-04-11T06:01:19.616Z,24.00
2023-04-11T06:03:51.740Z,23.40
2023-04-11T06:06:24.680Z,21.30
2023-04-11T06:08:56.714Z,22.70
2023-04-11T06:11:31.065Z,22.60
2023-04-11T06:14:03.687Z,19.90
2023-04-11T06:16:36.981Z,22.60
2023-04-11T06:19:12.438Z,23.40
2023-04-11T06:21:48.069Z,19.30
2023-04-11T06:24:29.935Z,21.60
2023-04-11T06:27:02.317Z,21.20
2023-04-11T06:29:34.259Z,18.20
2023-04-11T06:32:07.722Z,19.30
2023-04-11T06:34:42.267Z,17.90
2023-04-11T06:37:14.891Z,15.50
2023-04-11T06:39:47.617Z,13.80
2023-04-11T06:42:20.442Z,16.80
2023-04-11T06:44:57.414Z,14.10
2023-04-11T06:47:29.948Z,13.60
2023-04-11T06:50:02.146Z,12.20
2023-04-11T06:52:34.784Z,14.60
2023-04-11T06:55:08.693Z,13.80
2023-04-11T06:57:44.878Z,12.90
2023-04-11T07:00:20.008Z,12.40
2023-04-11T07:02:55.098Z,12.10
2023-04-11T07:05:30.281Z,10.40
2023-04-11T07:08:04.280Z,11.10
2023-04-11T07:10:39.220Z,36.80
2023-04-11T07:13:12.813Z,13.60
2023-04-11T07:15:46.000Z,11.10
2023-04-11T07:18:18.819Z,12.50
2023-04-11T07:20:54.032Z,13.20
2023-04-11T07:23:27.126Z,17.40
2023-04-11T07:26:01.966Z,14.40
2023-04-11T07:28:35.737Z,12.70
2023-04-11T07:31:11.531Z,11.00
2023-04-11T07:33:49.850Z,10.30
2023-04-11T07:36:24.631Z,10.30
2023-04-11T07:38:59.732Z,9.40
2023-04-11T07:41:31.855Z,10.30
2023-04-11T07:44:04.547Z,12.70
2023-04-11T07:46:37.326Z,10.10
2023-04-11T07:49:19.954Z,8.70
2023-04-11T07:51:54.657Z,11.60
2023-04-11T07:54:34.785Z,8.90
2023-04-11T07:57:09.135Z,10.30
2023-04-11T07:59:43.164Z,7.80
2023-04-11T08:02:17.036Z,9.50
2023-04-11T08:04:50.256Z,8.20
2023-04-11T08:07:22.562Z,7.40
2023-04-11T08:09:55.140Z,7.10
2023-04-11T08:12:27.237Z,7.20
2023-04-11T08:15:02.720Z,6.80
2023-04-11T08:17:39.234Z,7.40
2023-04-11T08:20:14.201Z,7.70
2023-04-11T08:22:47.646Z,8.70
2023-04-11T08:25:23.283Z,6.30
2023-04-11T08:27:55.516Z,7.70
2023-04-11T08:30:28.375Z,7.60
2023-04-11T08:33:05.404Z,9.00
2023-04-11T08:35:38.406Z,6.70
2023-04-11T08:38:16.617Z,9.00
2023-04-11T08:40:49.103Z,6.40
2023-04-11T08:43:21.933Z,8.20
2023-04-11T08:45:55.963Z,6.90
2023-04-11T08:48:30.734Z,4.70
2023-04-11T08:51:07.398Z,5.10
2023-04-11T08:53:44.682Z,6.00
2023-04-11T08:56:25.744Z,5.20
2023-04-11T08:58:58.452Z,4.90
2023-04-11T09:01:33.607Z,3.90
2023-04-11T09:04:08.890Z,4.20
2023-04-11T09:06:43.849Z,4.40
2023-04-11T09:09:31.554Z,4.70
2023-04-11T09:12:10.401Z,4.30
2023-04-11T09:14:46.207Z,5.70
2023-04-11T09:17:18.693Z,4.90
2023-04-11T09:19:50.967Z,9.50
2023-04-11T09:22:36.184Z,6.40
2023-04-11T09:25:09.244Z,4.70
2023-04-11T09:27:44.162Z,4.80
2023-04-11T09:30:26.190Z,3.90
2023-04-11T09:33:01.020Z,4.30
2023-04-11T09:35:36.072Z,4.20
2023-04-11T09:38:12.383Z,5.20
2023-04-11T09:40:48.401Z,3.60
2023-04-11T09:43:23.367Z,4.30
2023-04-11T09:46:20.646Z,3.40
2023-04-11T09:48:55.331Z,4.50
2023-04-11T09:51:36.417Z,4.10
2023-04-11T09:54:25.023Z,4.00
2023-04-11T09:57:00.630Z,4.50
2023-04-11T09:59:34.188Z,4.30
2023-04-11T10:02:06.296Z,5.30
2023-04-11T10:04:41.735Z,5.30
2023-04-11T10:07:17.340Z,4.30
2023-04-11T10:09:50.632Z,4.50
2023-04-11T10:12:35.522Z,4.40
2023-04-11T10:15:13.187Z,5.30
2023-04-11T10:18:12.558Z,4.00
2023-04-11T10:20:51.923Z,4.40
2023-04-11T10:23:24.319Z,4.00
2023-04-11T10:26:01.653Z,5.20
2023-04-11T10:28:40.434Z,3.60
2023-04-11T10:31:24.163Z,4.10
2023-04-11T10:34:16.853Z,4.60
2023-04-11T10:37:08.710Z,3.90
2023-04-11T10:40:11.431Z,4.60
2023-04-11T10:42:46.903Z,3.50
2023-04-11T10:45:24.776Z,3.80
2023-04-11T10:48:13.593Z,4.60
2023-04-11T10:50:46.794Z,4.10
2023-04-11T10:53:38.568Z,3.90
2023-04-11T10:56:16.130Z,4.20
2023-04-11T10:59:01.660Z,4.00
2023-04-11T11:04:11.365Z,4.00
2023-04-11T11:06:56.797Z,3.60
2023-04-11T11:09:29.810Z,3.70
2023-04-11T11:12:12.098Z,5.40
2023-04-11T11:14:51.250Z,4.50
2023-04-11T11:17:23.869Z,3.30
2023-04-11T11:19:55.933Z,4.00
2023-04-11T11:22:28.715Z,3.30
2023-04-11T11:25:10.550Z,4.10
2023-04-11T11:27:46.378Z,4.30
2023-04-11T11:30:20.847Z,4.80
2023-04-11T11:32:53.239Z,4.40
2023-04-11T11:35:27.780Z,5.30
2023-04-11T11:38:00.954Z,4.90
2023-04-11T11:40:33.472Z,5.40
2023-04-11T11:43:08.189Z,4.20
2023-04-11T11:45:41.587Z,4.30
2023-04-11T11:48:24.761Z,7.10
2023-04-11T11:51:01.418Z,8.00
2023-04-11T11:53:34.182Z,4.30
2023-04-11T11:56:26.062Z,5.10
2023-04-11T11:58:58.974Z,7.30
2023-04-11T12:01:32.555Z,5.90
2023-04-11T12:04:13.101Z,5.50
2023-04-11T12:06:50.764Z,7.10
2023-04-11T12:09:32.353Z,5.10
2023-04-11T12:12:11.937Z,6.90
2023-04-11T12:14:58.849Z,4.80
2023-04-11T12:20:38.601Z,6.30
2023-04-11T12:23:30.263Z,7.30
2023-04-11T12:26:06.555Z,5.70
2023-04-11T12:28:59.341Z,5.80
2023-04-11T12:31:33.901Z,5.70
2023-04-11T12:34:16.932Z,6.00
2023-04-11T12:36:58.555Z,5.60
2023-04-11T12:44:22.884Z,5.10
2023-04-11T12:45:35.968Z,5.00
2023-04-11T12:48:24.056Z,7.30
2023-04-11T12:53:31.398Z,5.80
2023-04-11T12:58:38.170Z,6.20
2023-04-11T13:01:25.165Z,5.60
2023-04-11T13:03:57.921Z,5.80
2023-04-11T13:06:32.283Z,5.90
2023-04-11T13:09:05.943Z,5.90
2023-04-11T13:11:44.484Z,6.90
2023-04-11T13:14:18.794Z,7.50
2023-04-11T13:16:57.245Z,6.90
2023-04-11T13:19:29.583Z,6.80
2023-04-11T13:22:04.310Z,5.90
2023-04-11T13:24:38.643Z,6.40
2023-04-11T13:27:14.543Z,6.00
2023-04-11T13:29:47.546Z,6.80
2023-04-11T13:32:20.521Z,7.20
2023-04-11T13:34:54.498Z,7.90
2023-04-11T13:37:27.078Z,7.80
2023-04-11T13:39:59.461Z,6.70
2023-04-11T13:42:31.961Z,6.50
2023-04-11T13:45:07.892Z,7.10
2023-04-11T13:47:41.572Z,6.50
2023-04-11T13:50:17.655Z,6.20
2023-04-11T13:53:01.981Z,7.10
2023-04-11T13:55:34.136Z,6.90
2023-04-11T13:58:09.295Z,6.30
2023-04-11T14:00:42.701Z,6.90
2023-04-11T14:03:18.354Z,8.40
2023-04-11T14:05:59.023Z,8.90
2023-04-11T14:08:32.082Z,8.60
2023-04-11T14:11:05.355Z,9.70
2023-04-11T14:13:41.963Z,7.00
2023-04-11T14:16:22.785Z,8.60
2023-04-11T14:18:57.483Z,6.30
2023-04-11T14:21:30.146Z,9.40
2023-04-11T14:24:02.637Z,5.20
2023-04-11T14:26:34.664Z,6.20
2023-04-11T14:29:07.203Z,6.80
2023-04-11T14:31:45.138Z,9.50
2023-04-11T14:36:50.993Z,6.30
2023-04-11T14:39:34.615Z,7.30
2023-04-11T14:42:10.560Z,7.80
2023-04-11T14:44:44.043Z,7.50
2023-04-11T14:47:30.377Z,5.90
2023-04-11T14:50:03.362Z,7.20
2023-04-11T14:52:38.638Z,6.30
2023-04-11T14:55:12.948Z,6.20
2023-04-11T14:57:50.346Z,6.90
2023-04-11T15:00:24.941Z,6.90
2023-04-11T15:03:00.707Z,7.30
2023-04-11T15:05:33.074Z,6.10
2023-04-11T15:08:05.649Z,6.20
2023-04-11T15:10:49.291Z,7.70
2023-04-11T15:13:27.138Z,5.10
2023-04-11T15:16:03.546Z,5.80
2023-04-11T15:18:46.047Z,4.50
2023-04-11T15:21:28.985Z,6.20
2023-04-11T15:24:10.091Z,5.80
2023-04-11T15:26:46.916Z,4.60
2023-04-11T15:29:20.572Z,7.50
2023-04-11T15:31:54.637Z,4.70
2023-04-11T15:34:27.179Z,5.00
2023-04-11T15:36:59.884Z,5.40
2023-04-11T15:39:32.421Z,5.30
2023-04-11T15:42:04.543Z,4.40
2023-04-11T15:44:37.006Z,4.20
2023-04-11T15:47:09.499Z,6.30
2023-04-11T15:49:44.924Z,6.30
2023-04-11T15:52:18.905Z,4.60
2023-04-11T15:54:51.381Z,5.20
2023-04-11T15:57:23.816Z,5.10
2023-04-11T15:59:56.066Z,4.30
2023-04-11T16:02:29.009Z,4.70
2023-04-11T16:05:03.567Z,5.70
2023-04-11T16:07:36.292Z,5.70
2023-04-11T16:10:10.651Z,5.70
2023-04-11T16:12:43.212Z,7.30
2023-04-11T16:15:16.017Z,6.00
2023-04-11T16:17:48.396Z,6.00
2023-04-11T16:20:24.391Z,7.40
2023-04-11T16:22:57.136Z,6.60
2023-04-11T16:25:29.524Z,5.70
2023-04-11T16:28:05.398Z,7.00
2023-04-11T16:30:38.597Z,7.70
2023-04-11T16:33:16.386Z,6.20
2023-04-11T16:35:49.409Z,6.50
2023-04-11T16:38:23.776Z,6.50
2023-04-11T16:40:56.679Z,6.90
2023-04-11T16:43:29.042Z,7.40
2023-04-11T16:46:02.284Z,7.30
2023-04-11T16:48:34.538Z,6.80
2023-04-11T16:51:10.751Z,8.10
2023-04-11T16:53:47.540Z,10.00
2023-04-11T16:56:29.131Z,10.50
2023-04-11T16:59:01.645Z,9.10
2023-04-11T17:01:36.723Z,10.40
2023-04-11T17:04:11.891Z,13.60
2023-04-11T17:06:50.438Z,11.50
2023-04-11T17:09:24.872Z,11.50
2023-04-11T17:12:02.259Z,9.60
2023-04-11T17:14:36.825Z,9.20
2023-04-11T17:17:09.167Z,12.50
2023-04-11T17:19:42.298Z,10.40
2023-04-11T17:22:16.088Z,11.80
2023-04-11T17:24:49.838Z,9.70
2023-04-11T17:27:22.477Z,12.60
2023-04-11T17:29:55.222Z,10.00
2023-04-11T17:32:31.337Z,10.00
2023-04-11T17:35:09.152Z,12.20
2023-04-11T17:37:42.766Z,9.20
2023-04-11T17:40:17.415Z,14.60
2023-04-11T17:42:51.412Z,10.20
2023-04-11T17:45:26.108Z,7.90
2023-04-11T17:48:01.439Z,13.70
2023-04-11T17:50:46.737Z,17.70
2023-04-11T17:53:19.510Z,20.80
2023-04-11T17:56:52.840Z,19.90
2023-04-11T18:00:04.731Z,22.50
2023-04-11T18:05:27.210Z,16.60
2023-04-11T18:08:03.332Z,13.40
2023-04-11T18:10:45.478Z,14.60
2023-04-11T18:13:18.667Z,12.80
2023-04-11T18:15:54.309Z,16.10
2023-04-11T18:18:49.958Z,15.30
2023-04-11T18:21:43.086Z,16.50
2023-04-11T18:24:35.774Z,16.40
2023-04-11T18:27:31.593Z,17.80
2023-04-11T18:30:25.181Z,16.20
2023-04-11T18:33:19.693Z,14.40
2023-04-11T18:36:13.880Z,18.60
2023-04-11T18:39:15.210Z,16.50
2023-04-11T18:42:08.781Z,15.60
2023-04-11T18:45:13.492Z,15.90
2023-04-11T18:48:07.369Z,14.90
2023-04-11T18:51:05.303Z,16.00
2023-04-11T18:55:01.037Z,15.20
2023-04-11T18:57:14.608Z,14.80
2023-04-11T19:00:18.077Z,17.30
2023-04-11T19:03:17.527Z,21.20
2023-04-11T19:06:13.045Z,20.30
2023-04-11T19:09:16.486Z,16.90
2023-04-11T19:12:23.259Z,17.50
2023-04-11T19:15:37.313Z,15.60
2023-04-11T19:18:32.901Z,16.40
2023-04-11T19:21:32.603Z,16.80
2023-04-11T19:24:26.523Z,17.90
2023-04-11T19:27:39.900Z,18.40
2023-04-11T19:30:35.474Z,18.10
2023-04-11T19:33:28.330Z,18.00
2023-04-11T19:36:31.600Z,19.20
2023-04-11T19:39:24.610Z,18.10
2023-04-11T19:48:25.362Z,17.50
2023-04-11T19:51:26.797Z,19.70
2023-04-11T19:54:00.176Z,17.90
2023-04-11T19:56:57.444Z,18.70
2023-04-11T19:59:51.874Z,19.60
2023-04-11T20:02:59.278Z,17.20
2023-04-11T20:05:51.910Z,20.20
2023-04-11T20:08:47.504Z,19.00
2023-04-11T20:11:40.916Z,21.50
2023-04-11T20:14:33.803Z,23.90
2023-04-11T20:17:27.597Z,22.30
2023-04-11T20:20:22.515Z,21.00
2023-04-11T20:23:24.089Z,24.30
2023-04-11T20:26:17.961Z,23.30
2023-04-11T20:29:13.647Z,23.80
2023-04-11T20:32:07.151Z,21.90
2023-04-11T20:35:02.016Z,34.50
2023-04-11T20:38:00.373Z,31.40
2023-04-11T20:40:57.253Z,29.80
2023-04-11T20:44:28.546Z,29.30
2023-04-11T20:47:12.628Z,30.80
2023-04-11T20:50:06.781Z,29.70
2023-04-11T20:53:02.715Z,31.20
2023-04-11T20:56:00.178Z,33.00
2023-04-11T20:59:02.799Z,35.20
2023-04-11T21:02:02.062Z,29.50
2023-04-11T21:05:06.467Z,27.70
2023-04-11T21:07:59.224Z,30.10
2023-04-11T21:10:44.464Z,26.00
2023-04-11T21:13:38.322Z,31.40
2023-04-11T21:16:31.575Z,28.40
2023-04-11T21:19:26.813Z,25.90
2023-04-11T21:25:57.196Z,28.00
2023-04-11T21:28:53.231Z,31.00
2023-04-11T21:31:50.512Z,28.10
2023-04-11T21:34:43.972Z,23.20
2023-04-11T21:37:40.144Z,25.60
2023-04-11T21:40:32.915Z,24.30
2023-04-11T21:43:25.748Z,24.50
2023-04-11T21:46:20.391Z,23.20
2023-04-11T21:49:14.722Z,24.60
2023-04-11T21:52:09.227Z,22.90
2023-04-11T21:55:01.676Z,24.00
2023-04-11T21:57:55.821Z,23.30
2023-04-11T22:00:53.055Z,23.60
2023-04-11T22:03:50.616Z,22.00
2023-04-11T22:06:46.450Z,25.50
2023-04-11T22:09:47.240Z,23.90
2023-04-11T22:12:43.472Z,24.40
2023-04-11T22:15:38.486Z,23.30
2023-04-11T22:18:31.491Z,24.60
2023-04-11T22:21:26.642Z,20.70
2023-04-11T22:24:15.484Z,19.40
2023-04-11T22:27:10.591Z,22.40
2023-04-11T22:30:03.562Z,25.60
2023-04-11T22:32:47.072Z,22.80
2023-04-11T22:35:40.050Z,23.90
2023-04-11T22:38:33.570Z,27.40
2023-04-11T22:41:50.896Z,27.30
2023-04-11T22:44:45.381Z,27.00
2023-04-11T22:47:38.576Z,24.90
2023-04-11T22:50:33.454Z,30.80
2023-04-11T22:53:35.423Z,31.00
2023-04-11T22:56:31.178Z,27.10
2023-04-11T22:59:23.633Z,29.40
2023-04-11T23:02:21.066Z,28.60
2023-04-11T23:05:17.268Z,32.10
2023-04-11T23:08:10.376Z,27.40
2023-04-11T23:11:07.677Z,25.10
2023-04-11T23:14:05.404Z,29.40
2023-04-11T23:16:58.075Z,29.60
2023-04-11T23:19:50.607Z,25.80
2023-04-11T23:22:33.228Z,26.50
2023-04-11T23:25:26.376Z,24.30
2023-04-11T23:28:19.148Z,24.50
2023-04-11T23:31:13.667Z,23.00
2023-04-11T23:34:08.747Z,24.00
2023-04-11T23:37:01.267Z,25.20
2023-04-11T23:39:59.453Z,24.80
2023-04-11T23:42:52.892Z,23.30
2023-04-11T23:45:44.906Z,23.70
2023-04-11T23:48:30.699Z,24.40
2023-04-11T23:51:23.541Z,21.70
2023-04-11T23:54:20.852Z,22.90
2023-04-11T23:57:14.200Z,21.50
